sensor_id;sensor_type;location;lat;lon;timestamp;P1;durP1;ratioP1;P2;durP2;ratioP2
12554;SDS011;6343;50.868;4.700;2023-04-01T00:00:22;5.90;;;1.10;;
12554;SDS011;6343;50.868;4.700;2023-04-01T00:02:49;4.10;;;0.97;;
12554;SDS011;6343;50.868;4.700;2023-04-01T00:05:15;2.30;;;0.73;;
12554;SDS011;6343;50.868;4.700;2023-04-01T00:07:41;1.87;;;0.73;;
12554;SDS011;6343;50.868;4.700;2023-04-01T00:10:08;2.50;;;1.03;;
12554;SDS011;6343;50.868;4.700;2023-04-01T00:12:35;2.53;;;0.80;;
12554;SDS011;6343;50.868;4.700;2023-04-01T00:15:01;5.93;;;1.20;;
12554;SDS011;6343;50.868;4.700;2023-04-01T00:17:27;3.27;;;0.80;;
12554;SDS011;6343;50.868;4.700;2023-04-01T00:19:57;4.07;;;0.97;;
12554;SDS011;6343;50.868;4.700;2023-04-01T00:22:23;3.17;;;0.90;;
12554;SDS011;6343;50.868;4.700;2023-04-01T00:24:49;2.60;;;0.70;;
12554;SDS011;6343;50.868;4.700;2023-04-01T00:27:16;2.80;;;0.90;;
12554;SDS011;6343;50.868;4.700;2023-04-01T00:29:42;4.10;;;1.47;;
12554;SDS011;6343;50.868;4.700;2023-04-01T00:32:09;5.90;;;1.10;;
12554;SDS011;6343;50.868;4.700;2023-04-01T00:34:35;2.60;;;1.00;;
12554;SDS011;6343;50.868;4.700;2023-04-01T00:37:02;4.13;;;1.27;;
12554;SDS011;6343;50.868;4.700;2023-04-01T00:39:29;3.23;;;0.97;;
12554;SDS011;6343;50.868;4.700;2023-04-01T00:41:55;4.57;;;1.23;;
12554;SDS011;6343;50.868;4.700;2023-04-01T00:44:29;4.60;;;1.23;;
12554;SDS011;6343;50.868;4.700;2023-04-01T00:46:56;4.80;;;0.87;;
12554;SDS011;6343;50.868;4.700;2023-04-01T00:49:23;3.10;;;1.10;;
12554;SDS011;6343;50.868;4.700;2023-04-01T00:51:51;1.60;;;0.70;;
12554;SDS011;6343;50.868;4.700;2023-04-01T00:54:19;4.20;;;1.03;;
12554;SDS011;6343;50.868;4.700;2023-04-01T00:56:50;3.03;;;0.97;;
12554;SDS011;6343;50.868;4.700;2023-04-01T00:59:22;1.63;;;0.70;;
12554;SDS011;6343;50.868;4.700;2023-04-01T01:01:49;2.27;;;0.90;;
12554;SDS011;6343;50.868;4.700;2023-04-01T01:04:22;3.10;;;0.87;;
12554;SDS011;6343;50.868;4.700;2023-04-01T01:07:12;3.13;;;0.77;;
12554;SDS011;6343;50.868;4.700;2023-04-01T01:10:01;1.13;;;0.60;;
12554;SDS011;6343;50.868;4.700;2023-04-01T01:15:23;2.83;;;0.60;;
12554;SDS011;6343;50.868;4.700;2023-04-01T01:31:15;2.23;;;0.60;;
12554;SDS011;6343;50.868;4.700;2023-04-01T01:33:50;2.60;;;0.80;;
12554;SDS011;6343;50.868;4.700;2023-04-01T01:36:19;3.03;;;0.80;;
12554;SDS011;6343;50.868;4.700;2023-04-01T01:38:46;0.70;;;0.60;;
12554;SDS011;6343;50.868;4.700;2023-04-01T01:41:13;0.93;;;0.60;;
12554;SDS011;6343;50.868;4.700;2023-04-01T01:43:41;3.20;;;0.83;;
12554;SDS011;6343;50.868;4.700;2023-04-01T01:46:10;2.77;;;0.90;;
12554;SDS011;6343;50.868;4.700;2023-04-01T01:48:37;1.80;;;0.83;;
12554;SDS011;6343;50.868;4.700;2023-04-01T01:51:06;2.83;;;0.70;;
12554;SDS011;6343;50.868;4.700;2023-04-01T01:53:32;1.43;;;0.57;;
12554;SDS011;6343;50.868;4.700;2023-04-01T01:55:58;0.73;;;0.50;;
12554;SDS011;6343;50.868;4.700;2023-04-01T01:58:35;0.83;;;0.60;;
12554;SDS011;6343;50.868;4.700;2023-04-01T02:01:06;1.57;;;0.90;;
12554;SDS011;6343;50.868;4.700;2023-04-01T02:03:34;1.03;;;0.50;;
12554;SDS011;6343;50.868;4.700;2023-04-01T02:06:03;1.13;;;0.70;;
12554;SDS011;6343;50.868;4.700;2023-04-01T02:11:30;1.43;;;0.80;;
12554;SDS011;6343;50.868;4.700;2023-04-01T02:14:41;2.23;;;0.77;;
12554;SDS011;6343;50.868;4.700;2023-04-01T02:16:54;1.43;;;0.90;;
12554;SDS011;6343;50.868;4.700;2023-04-01T02:19:22;1.23;;;0.97;;
12554;SDS011;6343;50.868;4.700;2023-04-01T02:21:51;3.13;;;1.10;;
12554;SDS011;6343;50.868;4.700;2023-04-01T02:24:19;1.53;;;0.90;;
12554;SDS011;6343;50.868;4.700;2023-04-01T02:26:48;4.33;;;1.37;;
12554;SDS011;6343;50.868;4.700;2023-04-01T02:29:14;2.57;;;1.27;;
12554;SDS011;6343;50.868;4.700;2023-04-01T02:31:41;3.40;;;1.30;;
12554;SDS011;6343;50.868;4.700;2023-04-01T02:34:08;3.53;;;1.77;;
12554;SDS011;6343;50.868;4.700;2023-04-01T02:36:35;2.17;;;1.40;;
12554;SDS011;6343;50.868;4.700;2023-04-01T02:39:01;4.50;;;1.93;;
12554;SDS011;6343;50.868;4.700;2023-04-01T02:41:29;5.53;;;2.03;;
12554;SDS011;6343;50.868;4.700;2023-04-01T02:43:55;4.37;;;1.97;;
12554;SDS011;6343;50.868;4.700;2023-04-01T02:46:23;4.77;;;2.20;;
12554;SDS011;6343;50.868;4.700;2023-04-01T02:48:49;3.83;;;1.70;;
12554;SDS011;6343;50.868;4.700;2023-04-01T02:51:15;3.97;;;1.67;;
12554;SDS011;6343;50.868;4.700;2023-04-01T02:53:41;3.93;;;1.50;;
12554;SDS011;6343;50.868;4.700;2023-04-01T02:56:08;1.97;;;1.33;;
12554;SDS011;6343;50.868;4.700;2023-04-01T02:58:34;2.60;;;1.30;;
12554;SDS011;6343;50.868;4.700;2023-04-01T03:01:00;2.87;;;1.33;;
12554;SDS011;6343;50.868;4.700;2023-04-01T03:03:26;3.87;;;1.97;;
12554;SDS011;6343;50.868;4.700;2023-04-01T03:05:52;5.63;;;1.50;;
12554;SDS011;6343;50.868;4.700;2023-04-01T03:08:21;3.13;;;1.40;;
12554;SDS011;6343;50.868;4.700;2023-04-01T03:10:47;2.63;;;1.37;;
12554;SDS011;6343;50.868;4.700;2023-04-01T03:13:13;4.03;;;1.47;;
12554;SDS011;6343;50.868;4.700;2023-04-01T03:15:39;8.50;;;1.70;;
12554;SDS011;6343;50.868;4.700;2023-04-01T03:18:05;9.83;;;2.00;;
12554;SDS011;6343;50.868;4.700;2023-04-01T03:20:31;4.20;;;1.60;;
12554;SDS011;6343;50.868;4.700;2023-04-01T03:22:58;3.00;;;1.40;;
12554;SDS011;6343;50.868;4.700;2023-04-01T03:25:24;5.17;;;1.60;;
12554;SDS011;6343;50.868;4.700;2023-04-01T03:27:50;4.23;;;1.53;;
12554;SDS011;6343;50.868;4.700;2023-04-01T03:30:16;5.77;;;2.07;;
12554;SDS011;6343;50.868;4.700;2023-04-01T03:32:42;4.53;;;1.80;;
12554;SDS011;6343;50.868;4.700;2023-04-01T03:35:08;3.10;;;1.40;;
12554;SDS011;6343;50.868;4.700;2023-04-01T03:37:35;4.63;;;1.90;;
12554;SDS011;6343;50.868;4.700;2023-04-01T03:40:02;4.53;;;1.83;;
12554;SDS011;6343;50.868;4.700;2023-04-01T03:42:29;4.27;;;1.70;;
12554;SDS011;6343;50.868;4.700;2023-04-01T03:44:56;3.20;;;1.70;;
12554;SDS011;6343;50.868;4.700;2023-04-01T03:47:22;6.53;;;2.10;;
12554;SDS011;6343;50.868;4.700;2023-04-01T03:49:48;2.60;;;1.70;;
12554;SDS011;6343;50.868;4.700;2023-04-01T03:52:14;3.57;;;2.13;;
12554;SDS011;6343;50.868;4.700;2023-04-01T03:54:40;4.17;;;2.37;;
12554;SDS011;6343;50.868;4.700;2023-04-01T03:57:06;4.23;;;2.20;;
12554;SDS011;6343;50.868;4.700;2023-04-01T03:59:32;5.23;;;2.30;;
12554;SDS011;6343;50.868;4.700;2023-04-01T04:01:58;3.90;;;2.27;;
12554;SDS011;6343;50.868;4.700;2023-04-01T04:04:25;5.77;;;2.70;;
12554;SDS011;6343;50.868;4.700;2023-04-01T04:06:51;4.40;;;2.57;;
12554;SDS011;6343;50.868;4.700;2023-04-01T04:09:17;7.50;;;2.57;;
12554;SDS011;6343;50.868;4.700;2023-04-01T04:11:43;7.13;;;3.13;;
12554;SDS011;6343;50.868;4.700;2023-04-01T04:14:09;6.03;;;2.93;;
12554;SDS011;6343;50.868;4.700;2023-04-01T04:16:35;6.23;;;2.87;;
12554;SDS011;6343;50.868;4.700;2023-04-01T04:19:02;8.77;;;3.00;;
12554;SDS011;6343;50.868;4.700;2023-04-01T04:21:28;7.50;;;3.13;;
12554;SDS011;6343;50.868;4.700;2023-04-01T04:23:54;5.93;;;3.17;;
12554;SDS011;6343;50.868;4.700;2023-04-01T04:26:20;4.53;;;3.23;;
12554;SDS011;6343;50.868;4.700;2023-04-01T04:28:46;7.70;;;3.40;;
12554;SDS011;6343;50.868;4.700;2023-04-01T04:31:17;7.00;;;3.47;;
12554;SDS011;6343;50.868;4.700;2023-04-01T04:33:44;7.07;;;3.20;;
12554;SDS011;6343;50.868;4.700;2023-04-01T04:36:10;8.47;;;3.07;;
12554;SDS011;6343;50.868;4.700;2023-04-01T04:38:36;6.40;;;2.70;;
12554;SDS011;6343;50.868;4.700;2023-04-01T04:41:02;50.50;;;28.67;;
12554;SDS011;6343;50.868;4.700;2023-04-01T04:43:28;53.53;;;22.30;;
12554;SDS011;6343;50.868;4.700;2023-04-01T04:45:54;8.60;;;3.77;;
12554;SDS011;6343;50.868;4.700;2023-04-01T04:48:20;7.17;;;2.90;;
12554;SDS011;6343;50.868;4.700;2023-04-01T04:50:47;7.83;;;3.60;;
12554;SDS011;6343;50.868;4.700;2023-04-01T04:53:15;7.67;;;3.63;;
12554;SDS011;6343;50.868;4.700;2023-04-01T04:55:48;5.17;;;2.70;;
12554;SDS011;6343;50.868;4.700;2023-04-01T04:58:14;4.50;;;2.43;;
12554;SDS011;6343;50.868;4.700;2023-04-01T05:00:41;7.43;;;2.50;;
12554;SDS011;6343;50.868;4.700;2023-04-01T05:03:07;4.27;;;2.23;;
12554;SDS011;6343;50.868;4.700;2023-04-01T05:05:33;5.50;;;2.37;;
12554;SDS011;6343;50.868;4.700;2023-04-01T05:07:59;2.60;;;1.93;;
12554;SDS011;6343;50.868;4.700;2023-04-01T05:10:25;3.97;;;1.83;;
12554;SDS011;6343;50.868;4.700;2023-04-01T05:12:51;3.47;;;2.10;;
12554;SDS011;6343;50.868;4.700;2023-04-01T05:15:18;6.30;;;1.97;;
12554;SDS011;6343;50.868;4.700;2023-04-01T05:17:44;3.53;;;1.90;;
12554;SDS011;6343;50.868;4.700;2023-04-01T05:20:11;3.10;;;1.50;;
12554;SDS011;6343;50.868;4.700;2023-04-01T05:22:37;6.33;;;2.10;;
12554;SDS011;6343;50.868;4.700;2023-04-01T05:25:04;2.10;;;1.53;;
12554;SDS011;6343;50.868;4.700;2023-04-01T05:27:30;2.63;;;1.53;;
12554;SDS011;6343;50.868;4.700;2023-04-01T05:29:56;2.27;;;1.27;;
12554;SDS011;6343;50.868;4.700;2023-04-01T05:32:23;2.17;;;1.40;;
12554;SDS011;6343;50.868;4.700;2023-04-01T05:34:53;2.90;;;1.53;;
12554;SDS011;6343;50.868;4.700;2023-04-01T05:37:19;2.37;;;1.30;;
12554;SDS011;6343;50.868;4.700;2023-04-01T05:39:45;2.40;;;1.10;;
12554;SDS011;6343;50.868;4.700;2023-04-01T05:42:11;1.83;;;1.07;;
12554;SDS011;6343;50.868;4.700;2023-04-01T05:44:37;2.50;;;1.40;;
12554;SDS011;6343;50.868;4.700;2023-04-01T05:47:04;3.20;;;1.50;;
12554;SDS011;6343;50.868;4.700;2023-04-01T05:49:30;2.00;;;1.40;;
12554;SDS011;6343;50.868;4.700;2023-04-01T05:51:56;4.17;;;1.50;;
12554;SDS011;6343;50.868;4.700;2023-04-01T05:54:22;2.70;;;1.20;;
12554;SDS011;6343;50.868;4.700;2023-04-01T05:56:48;2.03;;;1.40;;
12554;SDS011;6343;50.868;4.700;2023-04-01T05:59:14;1.57;;;1.27;;
12554;SDS011;6343;50.868;4.700;2023-04-01T06:01:41;2.33;;;1.53;;
12554;SDS011;6343;50.868;4.700;2023-04-01T06:04:10;4.40;;;1.70;;
12554;SDS011;6343;50.868;4.700;2023-04-01T06:06:39;2.80;;;1.70;;
12554;SDS011;6343;50.868;4.700;2023-04-01T06:19:40;3.20;;;2.10;;
12554;SDS011;6343;50.868;4.700;2023-04-01T06:50:24;3.77;;;2.90;;
12554;SDS011;6343;50.868;4.700;2023-04-01T06:58:03;5.33;;;3.00;;
12554;SDS011;6343;50.868;4.700;2023-04-01T07:00:38;3.70;;;2.80;;
12554;SDS011;6343;50.868;4.700;2023-04-01T07:03:26;4.67;;;2.73;;
12554;SDS011;6343;50.868;4.700;2023-04-01T07:05:56;5.47;;;2.87;;
12554;SDS011;6343;50.868;4.700;2023-04-01T07:08:25;3.77;;;2.60;;
12554;SDS011;6343;50.868;4.700;2023-04-01T07:10:58;5.10;;;2.80;;
12554;SDS011;6343;50.868;4.700;2023-04-01T07:13:29;5.17;;;3.10;;
12554;SDS011;6343;50.868;4.700;2023-04-01T07:16:05;2.87;;;2.10;;
12554;SDS011;6343;50.868;4.700;2023-04-01T07:18:34;5.67;;;2.87;;
12554;SDS011;6343;50.868;4.700;2023-04-01T07:21:03;4.23;;;2.43;;
12554;SDS011;6343;50.868;4.700;2023-04-01T07:23:37;5.03;;;2.60;;
12554;SDS011;6343;50.868;4.700;2023-04-01T07:26:06;7.47;;;2.70;;
12554;SDS011;6343;50.868;4.700;2023-04-01T07:28:36;3.43;;;2.90;;
12554;SDS011;6343;50.868;4.700;2023-04-01T07:31:08;2.50;;;2.00;;
12554;SDS011;6343;50.868;4.700;2023-04-01T07:59:33;3.60;;;1.50;;
12554;SDS011;6343;50.868;4.700;2023-04-01T08:02:15;2.10;;;1.30;;
12554;SDS011;6343;50.868;4.700;2023-04-01T08:07:33;1.23;;;0.80;;
12554;SDS011;6343;50.868;4.700;2023-04-01T08:10:05;0.83;;;0.80;;
12554;SDS011;6343;50.868;4.700;2023-04-01T08:17:42;1.53;;;0.60;;
12554;SDS011;6343;50.868;4.700;2023-04-01T08:25:51;1.07;;;0.50;;
12554;SDS011;6343;50.868;4.700;2023-04-01T08:30:47;0.90;;;0.60;;
12554;SDS011;6343;50.868;4.700;2023-04-01T08:35:59;0.60;;;0.50;;
12554;SDS011;6343;50.868;4.700;2023-04-01T09:01:19;0.70;;;0.70;;
12554;SDS011;6343;50.868;4.700;2023-04-01T09:04:04;1.30;;;0.83;;
12554;SDS011;6343;50.868;4.700;2023-04-01T09:06:51;0.70;;;0.70;;
12554;SDS011;6343;50.868;4.700;2023-04-01T09:19:53;0.97;;;0.93;;
12554;SDS011;6343;50.868;4.700;2023-04-01T09:27:57;1.33;;;0.70;;
12554;SDS011;6343;50.868;4.700;2023-04-01T09:33:16;1.27;;;0.60;;
12554;SDS011;6343;50.868;4.700;2023-04-01T09:40:56;1.33;;;0.70;;
12554;SDS011;6343;50.868;4.700;2023-04-01T09:43:33;1.20;;;1.07;;
12554;SDS011;6343;50.868;4.700;2023-04-01T09:53:50;1.00;;;0.80;;
12554;SDS011;6343;50.868;4.700;2023-04-01T09:56:22;1.40;;;1.00;;
12554;SDS011;6343;50.868;4.700;2023-04-01T10:22:35;3.83;;;1.87;;
12554;SDS011;6343;50.868;4.700;2023-04-01T10:25:15;1.93;;;1.73;;
12554;SDS011;6343;50.868;4.700;2023-04-01T10:40:49;1.93;;;1.60;;
12554;SDS011;6343;50.868;4.700;2023-04-01T10:48:21;1.63;;;1.00;;
12554;SDS011;6343;50.868;4.700;2023-04-01T10:53:37;1.83;;;1.20;;
12554;SDS011;6343;50.868;4.700;2023-04-01T11:01:36;3.47;;;1.30;;
12554;SDS011;6343;50.868;4.700;2023-04-01T11:04:33;1.67;;;1.57;;
12554;SDS011;6343;50.868;4.700;2023-04-01T11:23:32;1.30;;;0.90;;
12554;SDS011;6343;50.868;4.700;2023-04-01T11:31:37;1.93;;;1.10;;
12554;SDS011;6343;50.868;4.700;2023-04-01T11:34:14;1.00;;;0.90;;
12554;SDS011;6343;50.868;4.700;2023-04-01T11:36:46;1.30;;;1.10;;
12554;SDS011;6343;50.868;4.700;2023-04-01T11:41:51;0.90;;;0.60;;
12554;SDS011;6343;50.868;4.700;2023-04-01T11:44:19;2.13;;;0.70;;
12554;SDS011;6343;50.868;4.700;2023-04-01T11:46:56;1.67;;;0.93;;
12554;SDS011;6343;50.868;4.700;2023-04-01T11:54:51;4.43;;;2.33;;
12554;SDS011;6343;50.868;4.700;2023-04-01T12:19:59;35.53;;;18.73;;
12554;SDS011;6343;50.868;4.700;2023-04-01T12:22:29;33.83;;;18.83;;
12554;SDS011;6343;50.868;4.700;2023-04-01T12:35:55;16.00;;;8.60;;
12554;SDS011;6343;50.868;4.700;2023-04-01T12:41:17;25.60;;;13.57;;
12554;SDS011;6343;50.868;4.700;2023-04-01T13:04:38;1.53;;;0.97;;
12554;SDS011;6343;50.868;4.700;2023-04-01T13:07:31;2.17;;;1.33;;
12554;SDS011;6343;50.868;4.700;2023-04-01T13:17:45;1.00;;;1.00;;
12554;SDS011;6343;50.868;4.700;2023-04-01T13:30:42;2.60;;;1.23;;
12554;SDS011;6343;50.868;4.700;2023-04-01T13:33:14;1.93;;;0.90;;
12554;SDS011;6343;50.868;4.700;2023-04-01T13:38:35;2.13;;;1.10;;
12554;SDS011;6343;50.868;4.700;2023-04-01T13:43:39;1.10;;;1.00;;
12554;SDS011;6343;50.868;4.700;2023-04-01T14:22:32;2.47;;;0.90;;
12554;SDS011;6343;50.868;4.700;2023-04-01T14:33:05;2.07;;;1.10;;
12554;SDS011;6343;50.868;4.700;2023-04-01T14:35:38;3.57;;;1.70;;
12554;SDS011;6343;50.868;4.700;2023-04-01T14:38:22;2.17;;;1.60;;
12554;SDS011;6343;50.868;4.700;2023-04-01T14:48:54;2.13;;;1.53;;
12554;SDS011;6343;50.868;4.700;2023-04-01T14:59:04;3.07;;;1.73;;
12554;SDS011;6343;50.868;4.700;2023-04-01T15:01:42;1.97;;;1.30;;
12554;SDS011;6343;50.868;4.700;2023-04-01T15:14:31;1.83;;;1.40;;
12554;SDS011;6343;50.868;4.700;2023-04-01T15:30:33;2.90;;;1.00;;
12554;SDS011;6343;50.868;4.700;2023-04-01T15:35:34;1.93;;;1.30;;
12554;SDS011;6343;50.868;4.700;2023-04-01T15:43:40;2.10;;;1.00;;
12554;SDS011;6343;50.868;4.700;2023-04-01T16:05:10;1.47;;;1.30;;
12554;SDS011;6343;50.868;4.700;2023-04-01T16:10:22;1.30;;;1.20;;
12554;SDS011;6343;50.868;4.700;2023-04-01T16:15:36;3.10;;;1.10;;
12554;SDS011;6343;50.868;4.700;2023-04-01T16:23:37;1.83;;;1.20;;
12554;SDS011;6343;50.868;4.700;2023-04-01T16:36:00;3.90;;;1.30;;
12554;SDS011;6343;50.868;4.700;2023-04-01T16:38:37;1.10;;;0.90;;
12554;SDS011;6343;50.868;4.700;2023-04-01T16:41:14;1.87;;;1.00;;
12554;SDS011;6343;50.868;4.700;2023-04-01T16:43:42;1.10;;;1.00;;
12554;SDS011;6343;50.868;4.700;2023-04-01T16:46:32;1.33;;;0.93;;
12554;SDS011;6343;50.868;4.700;2023-04-01T16:49:03;0.97;;;0.90;;
12554;SDS011;6343;50.868;4.700;2023-04-01T16:51:34;2.77;;;1.60;;
12554;SDS011;6343;50.868;4.700;2023-04-01T16:54:06;4.57;;;1.53;;
12554;SDS011;6343;50.868;4.700;2023-04-01T16:56:50;3.43;;;1.83;;
12554;SDS011;6343;50.868;4.700;2023-04-01T17:01:49;1.77;;;1.40;;
12554;SDS011;6343;50.868;4.700;2023-04-01T17:04:34;4.23;;;2.50;;
12554;SDS011;6343;50.868;4.700;2023-04-01T17:07:24;2.77;;;1.60;;
12554;SDS011;6343;50.868;4.700;2023-04-01T17:10:02;3.37;;;1.60;;
12554;SDS011;6343;50.868;4.700;2023-04-01T17:12:43;2.47;;;1.37;;
12554;SDS011;6343;50.868;4.700;2023-04-01T17:23:04;2.40;;;1.87;;
12554;SDS011;6343;50.868;4.700;2023-04-01T17:33:35;2.43;;;1.67;;
12554;SDS011;6343;50.868;4.700;2023-04-01T17:36:05;4.63;;;2.20;;
12554;SDS011;6343;50.868;4.700;2023-04-01T17:38:50;3.63;;;1.70;;
12554;SDS011;6343;50.868;4.700;2023-04-01T17:51:59;3.03;;;1.93;;
12554;SDS011;6343;50.868;4.700;2023-04-01T17:54:45;2.40;;;2.03;;
12554;SDS011;6343;50.868;4.700;2023-04-01T18:15:17;1.67;;;1.57;;
12554;SDS011;6343;50.868;4.700;2023-04-01T18:22:47;2.90;;;1.83;;
12554;SDS011;6343;50.868;4.700;2023-04-01T18:25:17;2.00;;;1.77;;
12554;SDS011;6343;50.868;4.700;2023-04-01T18:30:31;2.47;;;2.10;;
12554;SDS011;6343;50.868;4.700;2023-04-01T18:33:09;3.50;;;2.20;;
12554;SDS011;6343;50.868;4.700;2023-04-01T18:35:48;2.63;;;2.23;;
12554;SDS011;6343;50.868;4.700;2023-04-01T18:38:27;2.50;;;2.03;;
12554;SDS011;6343;50.868;4.700;2023-04-01T18:43:43;2.77;;;2.50;;
12554;SDS011;6343;50.868;4.700;2023-04-01T18:46:17;3.10;;;2.80;;
12554;SDS011;6343;50.868;4.700;2023-04-01T18:48:52;2.93;;;2.47;;
12554;SDS011;6343;50.868;4.700;2023-04-01T18:51:23;3.07;;;2.77;;
12554;SDS011;6343;50.868;4.700;2023-04-01T18:53:58;2.90;;;2.70;;
12554;SDS011;6343;50.868;4.700;2023-04-01T18:56:27;2.67;;;2.47;;
12554;SDS011;6343;50.868;4.700;2023-04-01T18:58:58;3.47;;;2.67;;
12554;SDS011;6343;50.868;4.700;2023-04-01T19:01:31;2.87;;;2.67;;
12554;SDS011;6343;50.868;4.700;2023-04-01T19:04:16;5.70;;;3.00;;
12554;SDS011;6343;50.868;4.700;2023-04-01T19:06:47;2.77;;;2.47;;
12554;SDS011;6343;50.868;4.700;2023-04-01T19:11:47;3.00;;;2.50;;
12554;SDS011;6343;50.868;4.700;2023-04-01T19:36:56;4.37;;;3.60;;
12554;SDS011;6343;50.868;4.700;2023-04-01T19:39:27;4.43;;;3.23;;
12554;SDS011;6343;50.868;4.700;2023-04-01T19:52:16;6.13;;;3.33;;
12554;SDS011;6343;50.868;4.700;2023-04-01T20:10:47;6.00;;;4.07;;
12554;SDS011;6343;50.868;4.700;2023-04-01T20:16:06;4.60;;;3.47;;
12554;SDS011;6343;50.868;4.700;2023-04-01T20:18:39;6.53;;;4.20;;
12554;SDS011;6343;50.868;4.700;2023-04-01T20:23:43;5.53;;;3.83;;
12554;SDS011;6343;50.868;4.700;2023-04-01T20:26:11;5.03;;;3.87;;
12554;SDS011;6343;50.868;4.700;2023-04-01T20:31:37;6.20;;;3.50;;
12554;SDS011;6343;50.868;4.700;2023-04-01T20:42:11;6.23;;;4.23;;
12554;SDS011;6343;50.868;4.700;2023-04-01T20:47:21;6.60;;;4.77;;
12554;SDS011;6343;50.868;4.700;2023-04-01T20:49:54;6.67;;;4.57;;
12554;SDS011;6343;50.868;4.700;2023-04-01T20:52:26;6.93;;;5.27;;
12554;SDS011;6343;50.868;4.700;2023-04-01T20:55:19;7.30;;;5.37;;
12554;SDS011;6343;50.868;4.700;2023-04-01T21:12:58;16.17;;;9.10;;
12554;SDS011;6343;50.868;4.700;2023-04-01T21:15:33;12.57;;;8.47;;
12554;SDS011;6343;50.868;4.700;2023-04-01T21:23:40;12.97;;;9.03;;
12554;SDS011;6343;50.868;4.700;2023-04-01T21:31:15;14.80;;;8.57;;
12554;SDS011;6343;50.868;4.700;2023-04-01T21:33:49;11.80;;;8.87;;
12554;SDS011;6343;50.868;4.700;2023-04-01T21:43:53;14.47;;;9.03;;
12554;SDS011;6343;50.868;4.700;2023-04-01T22:07:17;7.93;;;6.03;;
12554;SDS011;6343;50.868;4.700;2023-04-01T22:12:26;7.47;;;5.83;;
12554;SDS011;6343;50.868;4.700;2023-04-01T22:15:18;8.27;;;6.37;;
12554;SDS011;6343;50.868;4.700;2023-04-01T22:17:51;7.77;;;6.70;;
12554;SDS011;6343;50.868;4.700;2023-04-01T22:20:36;11.77;;;8.87;;
12554;SDS011;6343;50.868;4.700;2023-04-01T22:23:22;11.77;;;8.07;;
12554;SDS011;6343;50.868;4.700;2023-04-01T22:31:16;11.83;;;9.30;;
12554;SDS011;6343;50.868;4.700;2023-04-01T22:33:51;11.40;;;8.97;;
12554;SDS011;6343;50.868;4.700;2023-04-01T22:39:12;11.83;;;9.17;;
12554;SDS011;6343;50.868;4.700;2023-04-01T22:46:56;12.30;;;9.63;;
12554;SDS011;6343;50.868;4.700;2023-04-01T22:49:26;12.77;;;8.80;;
12554;SDS011;6343;50.868;4.700;2023-04-01T22:56:51;12.53;;;9.63;;
12554;SDS011;6343;50.868;4.700;2023-04-01T22:59:31;11.90;;;8.90;;
12554;SDS011;6343;50.868;4.700;2023-04-01T23:02:02;11.30;;;9.60;;
12554;SDS011;6343;50.868;4.700;2023-04-01T23:04:31;15.10;;;8.97;;
12554;SDS011;6343;50.868;4.700;2023-04-01T23:06:59;10.93;;;8.70;;
12554;SDS011;6343;50.868;4.700;2023-04-01T23:09:27;12.00;;;7.97;;
12554;SDS011;6343;50.868;4.700;2023-04-01T23:17:07;10.33;;;7.57;;
12554;SDS011;6343;50.868;4.700;2023-04-01T23:19:46;12.13;;;8.40;;
12554;SDS011;6343;50.868;4.700;2023-04-01T23:24:50;8.90;;;7.43;;
12554;SDS011;6343;50.868;4.700;2023-04-01T23:29:51;11.30;;;8.97;;
12554;SDS011;6343;50.868;4.700;2023-04-01T23:32:26;11.83;;;7.73;;
12554;SDS011;6343;50.868;4.700;2023-04-01T23:34:59;9.50;;;7.60;;
12554;SDS011;6343;50.868;4.700;2023-04-01T23:37:25;11.23;;;8.40;;
12554;SDS011;6343;50.868;4.700;2023-04-01T23:39:53;9.97;;;7.73;;
12554;SDS011;6343;50.868;4.700;2023-04-01T23:44:49;9.77;;;7.90;;
12554;SDS011;6343;50.868;4.700;2023-04-01T23:47:17;10.80;;;8.57;;
12554;SDS011;6343;50.868;4.700;2023-04-01T23:49:46;13.73;;;8.50;;
12554;SDS011;6343;50.868;4.700;2023-04-01T23:52:17;9.77;;;7.20;;
12554;SDS011;6343;50.868;4.700;2023-04-01T23:54:52;9.37;;;7.43;;
12554;SDS011;6343;50.868;4.700;2023-04-01T23:57:22;10.10;;;7.00;;
